SCAR METAR and TAF weather

Enter ICAO airport designator
Station Type Date Time Source
SCAR METAR 2019/10/14 06:00 UTC NOAA

SCAR 140600Z 17004KT 9999 FEW040 17/12 Q1016


Station Type Date Time Source
SCAR Decoded METAR 2019/10/14 06:00 UTC NOAA

Arica, Chile (SCAR) 18-20S 070-20W 58M
Oct 14, 2019 - 02:00 AM EDT / 2019.10.14 0600 UTC
Wind: from the S (170 degrees) at 5 MPH (4 KT):0
Visibility: greater than 7 mile(s):0
Sky conditions: mostly clear
Temperature: 62 F (17 C)
Dew Point: 53 F (12 C)
Relative Humidity: 72%
Pressure (altimeter): 30.00 in. Hg (1016 hPa)
ob: SCAR 140600Z 17004KT 9999 FEW040 17/12 Q1016
cycle: 6

Station Type Date Time Source
SCAR TAF 2019/10/14 06:03 UTC NOAA

TAF TAF SCAR 140409Z 1406/1506 17004KT 9999 BKN030 TN17/1406Z TX20/1419Z
BECMG 1408/1410 08004KT
BECMG 1413/1415 22013KT CAVOK
BECMG 1500/1502 17004KT BKN020
BECMG 1503/1505 34004KT

Example: see airport list